createdAt,value
2018-12-18T00:00:44.403Z,0.00
2018-12-18T00:01:44.384Z,0.00
2018-12-18T00:02:44.354Z,0.00
2018-12-18T00:03:44.334Z,0.00
2018-12-18T00:04:44.310Z,0.00
2018-12-18T00:05:44.289Z,0.00
2018-12-18T00:06:44.262Z,0.00
2018-12-18T00:07:44.569Z,0.00
2018-12-18T00:08:44.217Z,0.00
2018-12-18T00:09:44.205Z,0.00
2018-12-18T00:10:44.171Z,0.00
2018-12-18T00:11:44.144Z,0.00
2018-12-18T00:12:44.124Z,0.00
2018-12-18T00:13:44.105Z,0.00
2018-12-18T00:14:44.072Z,0.00
2018-12-18T00:15:44.053Z,0.00
2018-12-18T00:16:44.050Z,0.00
2018-12-18T00:17:44.002Z,0.00
2018-12-18T00:18:43.971Z,0.00
2018-12-18T00:19:43.956Z,0.00
2018-12-18T00:20:43.929Z,0.00
2018-12-18T00:21:43.911Z,0.00
2018-12-18T00:22:43.885Z,0.00
2018-12-18T00:23:43.862Z,0.00
2018-12-18T00:24:43.834Z,0.00
2018-12-18T00:25:43.818Z,0.00
2018-12-18T00:26:43.784Z,0.00
2018-12-18T00:27:43.759Z,0.00
2018-12-18T00:28:43.734Z,0.00
2018-12-18T00:29:43.715Z,0.00
2018-12-18T00:30:43.692Z,0.00
2018-12-18T00:31:43.667Z,0.00
2018-12-18T00:32:43.647Z,0.00
2018-12-18T00:33:46.196Z,0.00
2018-12-18T00:34:43.599Z,0.00
2018-12-18T00:35:43.576Z,0.00
2018-12-18T00:36:43.551Z,0.00
2018-12-18T00:37:43.534Z,0.00
2018-12-18T00:38:43.503Z,0.00
2018-12-18T00:39:43.477Z,0.00
2018-12-18T00:40:43.458Z,0.00
2018-12-18T00:41:43.438Z,0.00
2018-12-18T00:42:43.416Z,0.00
2018-12-18T00:43:43.386Z,0.00
2018-12-18T00:44:43.458Z,0.00
2018-12-18T00:45:43.336Z,0.00
2018-12-18T00:46:43.314Z,0.00
2018-12-18T00:47:43.289Z,0.00
2018-12-18T00:48:43.263Z,0.00
2018-12-18T00:49:43.240Z,0.00
2018-12-18T00:50:43.211Z,0.00
2018-12-18T00:51:43.195Z,0.00
2018-12-18T00:52:43.176Z,0.00
2018-12-18T00:53:43.153Z,0.00
2018-12-18T00:54:43.125Z,0.00
2018-12-18T00:55:43.099Z,0.00
2018-12-18T00:56:43.073Z,0.00
2018-12-18T00:57:43.051Z,0.00
2018-12-18T00:58:43.019Z,0.00
2018-12-18T00:59:42.997Z,0.00
2018-12-18T01:00:42.973Z,0.00
2018-12-18T01:01:42.953Z,0.00
2018-12-18T01:02:42.928Z,0.00
2018-12-18T01:03:42.923Z,0.00
2018-12-18T01:04:42.883Z,0.00
2018-12-18T01:05:42.862Z,0.00
2018-12-18T01:06:42.835Z,0.00
2018-12-18T01:07:42.810Z,0.00
2018-12-18T01:08:42.787Z,0.00
2018-12-18T01:09:42.759Z,0.00
2018-12-18T01:10:42.742Z,0.00
2018-12-18T01:11:42.714Z,0.00
2018-12-18T01:12:42.687Z,0.00
2018-12-18T01:13:42.680Z,0.00
2018-12-18T01:14:42.641Z,0.00
2018-12-18T01:15:42.620Z,0.00
2018-12-18T01:16:42.593Z,0.00
2018-12-18T01:17:42.577Z,0.00
2018-12-18T01:18:42.562Z,0.00
2018-12-18T01:19:42.526Z,0.00
2018-12-18T01:20:42.501Z,0.00
2018-12-18T01:21:42.478Z,0.00
2018-12-18T01:22:42.452Z,0.00
2018-12-18T01:23:42.427Z,0.00
2018-12-18T01:24:42.405Z,0.00
2018-12-18T01:25:42.383Z,0.00
2018-12-18T01:26:42.373Z,0.00
2018-12-18T01:27:42.498Z,0.00
2018-12-18T01:28:42.744Z,0.00
2018-12-18T01:29:42.347Z,0.00
2018-12-18T01:30:42.300Z,0.00
2018-12-18T01:31:42.314Z,0.00
2018-12-18T01:32:42.223Z,0.00
2018-12-18T01:33:42.189Z,0.00
2018-12-18T01:34:42.155Z,0.00
2018-12-18T01:35:42.142Z,0.00
2018-12-18T01:36:42.109Z,0.00
2018-12-18T01:37:42.085Z,0.00
2018-12-18T01:38:42.064Z,0.00
2018-12-18T01:39:42.036Z,0.00
2018-12-18T01:40:42.013Z,0.00
2018-12-18T01:41:41.991Z,0.00
2018-12-18T01:42:41.966Z,0.00
2018-12-18T01:43:41.940Z,0.00
2018-12-18T01:44:41.918Z,0.00
2018-12-18T01:45:41.889Z,0.00
2018-12-18T01:46:41.864Z,0.00
2018-12-18T01:47:41.841Z,0.00
2018-12-18T01:48:41.835Z,0.00
2018-12-18T01:49:41.798Z,0.00
2018-12-18T01:50:41.767Z,0.00
2018-12-18T01:51:41.742Z,0.00
2018-12-18T01:52:41.719Z,0.00
2018-12-18T01:53:41.697Z,0.00
2018-12-18T01:54:41.667Z,0.00
2018-12-18T01:55:41.646Z,0.00
2018-12-18T01:56:41.633Z,0.00
2018-12-18T01:57:41.600Z,0.00
2018-12-18T01:58:41.573Z,0.00
2018-12-18T01:59:41.548Z,0.00
2018-12-18T02:00:41.522Z,0.00
2018-12-18T02:01:41.506Z,0.00
2018-12-18T02:02:41.474Z,0.00
2018-12-18T02:03:41.449Z,0.00
2018-12-18T02:04:41.426Z,0.00
2018-12-18T02:05:41.404Z,0.00
2018-12-18T02:06:41.381Z,0.00
2018-12-18T02:07:41.348Z,0.00
2018-12-18T02:08:41.320Z,0.00
2018-12-18T02:09:41.298Z,0.00
2018-12-18T02:10:41.278Z,0.00
2018-12-18T02:11:41.259Z,0.00
2018-12-18T02:12:41.228Z,0.00
2018-12-18T02:13:41.201Z,0.00
2018-12-18T02:14:41.178Z,0.00
2018-12-18T02:15:41.152Z,0.00
2018-12-18T02:16:41.130Z,0.00
2018-12-18T02:17:41.098Z,0.00
2018-12-18T02:18:41.090Z,0.00
2018-12-18T02:19:41.057Z,0.00
2018-12-18T02:20:41.032Z,0.00
2018-12-18T02:21:41.005Z,0.00
2018-12-18T02:22:40.982Z,0.00
2018-12-18T02:23:40.954Z,0.00
2018-12-18T02:24:40.935Z,0.00
2018-12-18T02:25:40.909Z,0.00
2018-12-18T02:26:40.885Z,0.00
2018-12-18T02:27:40.866Z,0.00
2018-12-18T02:28:40.839Z,0.00
2018-12-18T02:29:40.813Z,0.00
2018-12-18T02:30:40.784Z,0.00
2018-12-18T02:31:40.762Z,0.00
2018-12-18T02:32:40.739Z,0.00
2018-12-18T02:33:40.714Z,0.00
2018-12-18T02:34:40.691Z,0.00
2018-12-18T02:35:40.663Z,0.00
2018-12-18T02:36:40.653Z,0.00
2018-12-18T02:37:40.625Z,0.00
2018-12-18T02:38:40.596Z,0.00
2018-12-18T02:39:40.568Z,0.00
2018-12-18T02:40:40.549Z,0.00
2018-12-18T02:41:40.527Z,0.00
2018-12-18T02:42:40.499Z,0.00
2018-12-18T02:43:40.476Z,0.00
2018-12-18T02:44:40.458Z,0.00
2018-12-18T02:45:40.427Z,0.00
2018-12-18T02:46:40.402Z,0.00
2018-12-18T02:47:40.380Z,0.00
2018-12-18T02:48:40.359Z,0.00
2018-12-18T02:49:40.341Z,0.00
2018-12-18T02:50:40.307Z,0.00
2018-12-18T02:51:40.285Z,0.00
2018-12-18T02:52:40.259Z,0.00
2018-12-18T02:53:40.233Z,0.00
2018-12-18T02:54:40.208Z,0.00
2018-12-18T02:55:40.188Z,0.00
2018-12-18T02:56:40.157Z,0.00
2018-12-18T02:57:40.143Z,0.00
2018-12-18T02:58:40.117Z,0.00
2018-12-18T02:59:40.083Z,0.00
2018-12-18T03:00:40.088Z,0.00
2018-12-18T03:01:40.051Z,0.00
2018-12-18T03:02:40.016Z,0.00
2018-12-18T03:03:39.988Z,0.00
2018-12-18T03:04:39.974Z,0.00
2018-12-18T03:05:39.942Z,0.00
2018-12-18T03:06:39.911Z,0.00
2018-12-18T03:07:39.898Z,0.00
2018-12-18T03:08:39.873Z,0.00
2018-12-18T03:09:39.848Z,0.00
2018-12-18T03:10:39.818Z,0.00
2018-12-18T03:11:39.799Z,0.00
2018-12-18T03:12:39.772Z,0.00
2018-12-18T03:13:40.202Z,0.00
2018-12-18T03:14:45.281Z,0.00
2018-12-18T03:15:39.694Z,0.00
2018-12-18T03:16:39.670Z,0.00
2018-12-18T03:17:39.649Z,0.00
2018-12-18T03:18:39.640Z,0.00
2018-12-18T03:19:39.595Z,0.00
2018-12-18T03:20:39.571Z,0.00
2018-12-18T03:21:39.548Z,0.00
2018-12-18T03:22:39.522Z,0.00
2018-12-18T03:23:39.500Z,0.00
2018-12-18T03:24:39.472Z,0.00
2018-12-18T03:25:39.454Z,0.00
2018-12-18T03:26:39.423Z,0.00
2018-12-18T03:27:39.394Z,0.00
2018-12-18T03:28:39.371Z,0.00
2018-12-18T03:29:39.349Z,0.00
2018-12-18T03:30:39.324Z,0.00
2018-12-18T03:31:39.302Z,0.00
2018-12-18T03:32:39.283Z,0.00
2018-12-18T03:33:39.246Z,0.00
2018-12-18T03:34:39.230Z,0.00
2018-12-18T03:35:39.207Z,0.00
2018-12-18T03:36:39.174Z,0.00
2018-12-18T03:37:39.145Z,0.00
2018-12-18T03:38:39.128Z,0.00
2018-12-18T03:39:39.100Z,0.00
2018-12-18T03:40:39.081Z,0.00
2018-12-18T03:41:39.052Z,0.00
2018-12-18T03:42:39.027Z,0.00
2018-12-18T03:43:39.007Z,0.00
2018-12-18T03:44:38.972Z,0.00
2018-12-18T03:45:38.950Z,0.00
2018-12-18T03:46:38.928Z,0.00
2018-12-18T03:47:38.901Z,0.00
2018-12-18T03:48:38.876Z,0.00
2018-12-18T03:49:38.859Z,0.00
2018-12-18T03:50:38.889Z,0.00
2018-12-18T03:51:38.799Z,0.00
2018-12-18T03:52:38.775Z,0.00
2018-12-18T03:53:38.756Z,0.00
2018-12-18T03:54:38.725Z,0.00
2018-12-18T03:55:38.698Z,0.00
2018-12-18T03:56:38.676Z,0.00
2018-12-18T03:57:38.652Z,0.00
2018-12-18T03:58:38.623Z,0.00
2018-12-18T03:59:38.600Z,0.00
2018-12-18T04:00:38.576Z,0.00
2018-12-18T04:01:38.549Z,0.00
2018-12-18T04:02:38.515Z,0.00
2018-12-18T04:03:38.497Z,0.00
2018-12-18T04:04:38.471Z,0.00
2018-12-18T04:05:38.449Z,0.00
2018-12-18T04:06:38.426Z,0.00
2018-12-18T04:07:38.395Z,0.00
2018-12-18T04:08:38.368Z,0.00
2018-12-18T04:09:38.346Z,0.00
2018-12-18T04:10:38.321Z,0.00
2018-12-18T04:11:38.293Z,0.00
2018-12-18T04:12:38.284Z,0.00
2018-12-18T04:13:38.261Z,0.00
2018-12-18T04:14:38.216Z,0.00
2018-12-18T04:15:38.194Z,0.00
2018-12-18T04:16:38.169Z,0.00
2018-12-18T04:17:38.152Z,0.00
2018-12-18T04:18:38.114Z,0.00
2018-12-18T04:19:38.096Z,0.00
2018-12-18T04:20:38.070Z,0.00
2018-12-18T04:21:38.038Z,0.00
2018-12-18T04:22:38.019Z,0.00
2018-12-18T04:23:37.993Z,0.00
2018-12-18T04:24:37.965Z,0.00
2018-12-18T04:25:37.939Z,0.00
2018-12-18T04:26:37.920Z,0.00
2018-12-18T04:27:37.901Z,0.00
2018-12-18T04:28:37.870Z,0.00
2018-12-18T04:29:37.843Z,0.00
2018-12-18T04:30:37.812Z,0.00
2018-12-18T04:31:37.787Z,0.00
2018-12-18T04:32:37.767Z,0.00
2018-12-18T04:33:37.749Z,0.00
2018-12-18T04:34:42.995Z,0.00
2018-12-18T04:35:37.691Z,0.00
2018-12-18T04:36:37.666Z,0.00
2018-12-18T04:37:37.633Z,0.00
2018-12-18T04:38:37.609Z,0.00
2018-12-18T04:39:37.597Z,0.00
2018-12-18T04:40:37.559Z,0.00
2018-12-18T04:41:37.532Z,0.00
2018-12-18T04:42:37.508Z,0.00
2018-12-18T04:43:37.490Z,0.00
2018-12-18T04:44:37.463Z,0.00
2018-12-18T04:45:37.438Z,0.00
2018-12-18T04:46:37.415Z,0.00
2018-12-18T04:47:37.388Z,0.00
2018-12-18T04:48:37.365Z,0.00
2018-12-18T04:49:37.339Z,0.00
2018-12-18T04:50:37.317Z,0.00
2018-12-18T04:51:37.286Z,0.00
2018-12-18T04:52:37.262Z,0.00
2018-12-18T04:53:37.235Z,0.00
2018-12-18T04:54:37.213Z,0.00
2018-12-18T04:55:37.188Z,0.00
2018-12-18T04:56:37.166Z,0.00
2018-12-18T04:57:37.133Z,0.00
2018-12-18T04:58:37.111Z,0.00
2018-12-18T04:59:37.079Z,0.00
2018-12-18T05:00:37.056Z,0.00
2018-12-18T05:01:37.037Z,0.00
2018-12-18T05:02:37.012Z,0.00
2018-12-18T05:03:36.982Z,0.00
2018-12-18T05:04:36.957Z,0.00
2018-12-18T05:05:36.934Z,0.00
2018-12-18T05:06:36.909Z,0.00
2018-12-18T05:07:36.885Z,0.00
2018-12-18T05:08:36.881Z,0.00
2018-12-18T05:09:36.829Z,0.00
2018-12-18T05:10:36.806Z,0.00
2018-12-18T05:11:36.782Z,0.00
2018-12-18T05:12:36.756Z,0.00
2018-12-18T05:13:36.733Z,0.00
2018-12-18T05:14:36.706Z,0.00
2018-12-18T05:15:36.680Z,0.00
2018-12-18T05:16:36.651Z,0.00
2018-12-18T05:17:36.634Z,0.00
2018-12-18T05:18:36.609Z,0.00
2018-12-18T05:19:36.579Z,0.00
2018-12-18T05:20:36.550Z,0.00
2018-12-18T05:21:36.535Z,0.00
2018-12-18T05:22:36.506Z,0.00
2018-12-18T05:23:36.495Z,0.00
2018-12-18T05:24:36.455Z,0.00
2018-12-18T05:25:36.430Z,0.00
2018-12-18T05:26:36.400Z,0.00
2018-12-18T05:27:36.383Z,0.00
2018-12-18T05:28:36.355Z,0.00
2018-12-18T05:29:36.334Z,0.00
2018-12-18T05:30:36.294Z,0.00
2018-12-18T05:31:36.278Z,0.00
2018-12-18T05:32:36.253Z,0.00
2018-12-18T05:33:36.231Z,0.00
2018-12-18T05:34:36.204Z,0.00
2018-12-18T05:35:36.172Z,0.00
2018-12-18T05:36:36.153Z,0.00
2018-12-18T05:37:36.126Z,0.00
2018-12-18T05:38:36.102Z,0.00
2018-12-18T05:39:36.069Z,0.00
2018-12-18T05:40:36.058Z,0.00
2018-12-18T05:41:36.028Z,0.00
2018-12-18T05:42:36.006Z,0.00
2018-12-18T05:43:35.974Z,0.00
2018-12-18T05:44:35.951Z,0.00
2018-12-18T05:45:35.927Z,0.00
2018-12-18T05:46:35.897Z,0.00
2018-12-18T05:47:35.878Z,0.00
2018-12-18T05:48:35.852Z,0.00
2018-12-18T05:49:35.827Z,0.00
2018-12-18T05:50:35.802Z,0.00
2018-12-18T05:51:35.777Z,0.00
2018-12-18T05:52:35.749Z,0.00
2018-12-18T05:53:35.726Z,0.00
2018-12-18T05:54:35.700Z,0.00
2018-12-18T05:55:35.678Z,0.00
2018-12-18T05:56:35.649Z,0.00
2018-12-18T05:57:35.618Z,0.00
2018-12-18T05:58:35.591Z,0.00
2018-12-18T05:59:35.577Z,0.00
2018-12-18T06:00:35.551Z,0.00
2018-12-18T06:01:35.528Z,0.00
2018-12-18T06:02:35.497Z,0.00
2018-12-18T06:03:35.486Z,0.00
2018-12-18T06:04:35.449Z,0.00
2018-12-18T06:05:35.427Z,0.00
2018-12-18T06:06:35.398Z,0.00
2018-12-18T06:07:35.375Z,0.00
2018-12-18T06:08:35.354Z,0.00
2018-12-18T06:09:35.327Z,0.00
2018-12-18T06:10:35.305Z,0.00
2018-12-18T06:11:35.270Z,0.00
2018-12-18T06:12:35.250Z,0.00
2018-12-18T06:13:35.228Z,0.00
2018-12-18T06:14:35.199Z,0.00
2018-12-18T06:15:35.182Z,0.00
2018-12-18T06:16:35.154Z,0.00
2018-12-18T06:17:35.123Z,0.00
2018-12-18T06:18:35.095Z,0.00
2018-12-18T06:19:35.092Z,0.00
2018-12-18T06:20:35.049Z,0.00
2018-12-18T06:21:35.027Z,0.00
2018-12-18T06:22:35.001Z,0.00
2018-12-18T06:23:34.983Z,0.00
2018-12-18T06:24:34.948Z,0.00
2018-12-18T06:25:34.920Z,0.00
2018-12-18T06:26:34.905Z,0.00
2018-12-18T06:27:34.875Z,0.00
2018-12-18T06:28:34.851Z,0.00
2018-12-18T06:29:34.828Z,0.00
2018-12-18T06:30:34.814Z,0.00
2018-12-18T06:31:34.789Z,0.00
2018-12-18T06:32:34.760Z,0.00
2018-12-18T06:33:34.740Z,0.00
2018-12-18T06:34:34.699Z,0.00
2018-12-18T06:35:34.673Z,0.00
2018-12-18T06:36:34.652Z,0.00
2018-12-18T06:37:34.648Z,0.00
2018-12-18T06:38:34.600Z,0.00
2018-12-18T06:39:34.577Z,0.00
2018-12-18T06:40:34.554Z,0.00
2018-12-18T06:41:34.529Z,0.00
2018-12-18T06:42:34.506Z,4.00
2018-12-18T06:43:34.481Z,4.00
2018-12-18T06:44:34.455Z,0.00
2018-12-18T06:45:34.430Z,4.00
2018-12-18T06:46:34.401Z,4.00
2018-12-18T06:47:34.379Z,4.00
2018-12-18T06:48:34.354Z,8.00
2018-12-18T06:49:34.329Z,8.00
2018-12-18T06:50:34.306Z,8.00
2018-12-18T06:51:34.293Z,8.00
2018-12-18T06:52:34.271Z,8.00
2018-12-18T06:53:34.252Z,12.00
2018-12-18T06:54:34.207Z,12.00
2018-12-18T06:55:34.201Z,12.00
2018-12-18T06:56:34.158Z,16.00
2018-12-18T06:57:34.134Z,20.00
2018-12-18T06:58:34.104Z,24.00
2018-12-18T06:59:34.083Z,24.00
2018-12-18T07:00:34.062Z,32.00
2018-12-18T07:01:34.043Z,36.00
2018-12-18T07:02:34.008Z,40.00
2018-12-18T07:03:33.985Z,48.00
2018-12-18T07:04:33.959Z,56.00
2018-12-18T07:05:33.943Z,64.00
2018-12-18T07:06:33.911Z,76.00
2018-12-18T07:07:33.883Z,84.00
2018-12-18T07:08:33.869Z,100.00
2018-12-18T07:09:33.838Z,112.00
2018-12-18T07:10:33.815Z,124.00
2018-12-18T07:11:33.795Z,144.00
2018-12-18T07:12:33.767Z,160.00
2018-12-18T07:13:33.744Z,184.00
2018-12-18T07:14:33.716Z,200.00
2018-12-18T07:15:33.693Z,216.00
2018-12-18T07:16:33.702Z,236.00
2018-12-18T07:17:33.656Z,252.00
2018-12-18T07:18:33.615Z,272.00
2018-12-18T07:19:33.590Z,292.00
2018-12-18T07:20:33.604Z,320.00
2018-12-18T07:21:33.623Z,340.00
2018-12-18T07:22:33.533Z,364.00
2018-12-18T07:23:33.511Z,400.00
2018-12-18T07:24:33.511Z,432.00
2018-12-18T07:25:33.451Z,468.00
2018-12-18T07:26:33.448Z,508.00
2018-12-18T07:27:33.408Z,548.00
2018-12-18T07:28:33.388Z,592.00
2018-12-18T07:29:33.349Z,628.00
2018-12-18T07:30:33.343Z,684.00
2018-12-18T07:31:33.305Z,748.00
2018-12-18T07:32:33.316Z,800.00
2018-12-18T07:33:33.266Z,840.00
2018-12-18T07:34:33.522Z,864.00
2018-12-18T07:35:33.205Z,912.00
2018-12-18T07:36:33.181Z,940.00
2018-12-18T07:37:33.168Z,944.00
2018-12-18T07:38:33.129Z,968.00
2018-12-18T07:39:33.120Z,1008.00
2018-12-18T07:40:33.091Z,1020.00
2018-12-18T07:41:33.056Z,1040.00
2018-12-18T07:42:33.037Z,1072.00
2018-12-18T07:43:33.011Z,1096.00
2018-12-18T07:44:33.001Z,1120.00
2018-12-18T07:45:32.960Z,1144.00
2018-12-18T07:46:32.961Z,1172.00
2018-12-18T07:47:32.912Z,1204.00
2018-12-18T07:48:32.884Z,1228.00
2018-12-18T07:49:32.860Z,1252.00
2018-12-18T07:50:32.865Z,1292.00
2018-12-18T07:51:32.816Z,1328.00
2018-12-18T07:52:32.788Z,1360.00
2018-12-18T07:53:32.763Z,1400.00
2018-12-18T07:54:32.730Z,1424.00
2018-12-18T07:55:32.711Z,1448.00
2018-12-18T07:56:32.695Z,1480.00
2018-12-18T07:57:32.666Z,1508.00
2018-12-18T07:58:32.641Z,1532.00
2018-12-18T07:59:32.609Z,1568.00
2018-12-18T08:00:32.612Z,1604.00
2018-12-18T08:01:32.573Z,1664.00
2018-12-18T08:02:32.546Z,1752.00
2018-12-18T08:03:32.524Z,1836.00
2018-12-18T08:04:32.489Z,1900.00
2018-12-18T08:05:32.466Z,1924.00
2018-12-18T08:06:32.447Z,1996.00
2018-12-18T08:07:32.412Z,2108.00
2018-12-18T08:08:32.388Z,2224.00
2018-12-18T08:09:32.387Z,2264.00
2018-12-18T08:10:32.349Z,2260.00
2018-12-18T08:11:32.313Z,2428.00
2018-12-18T08:12:32.291Z,2596.00
2018-12-18T08:13:32.274Z,2800.00
2018-12-18T08:14:32.253Z,3048.00
2018-12-18T08:15:32.218Z,3144.00
2018-12-18T08:16:32.221Z,3000.00
2018-12-18T08:17:32.165Z,2904.00
2018-12-18T08:18:32.152Z,2828.00
2018-12-18T08:19:32.117Z,2732.00
2018-12-18T08:20:32.114Z,2964.00
2018-12-18T08:21:32.080Z,2916.00
2018-12-18T08:22:32.053Z,2976.00
2018-12-18T08:23:32.018Z,3080.00
2018-12-18T08:24:32.005Z,2784.00
2018-12-18T08:25:31.996Z,3640.00
2018-12-18T08:26:31.950Z,3916.00
2018-12-18T08:27:31.927Z,4196.00
2018-12-18T08:28:31.897Z,4100.00
2018-12-18T08:29:31.885Z,4056.00
2018-12-18T08:30:31.849Z,3984.00
2018-12-18T08:31:31.824Z,3948.00
2018-12-18T08:32:31.808Z,4032.00
2018-12-18T08:33:31.806Z,4036.00
2018-12-18T08:34:31.766Z,4144.00
2018-12-18T08:35:36.421Z,4300.00
2018-12-18T08:36:31.715Z,4588.00
2018-12-18T08:37:31.691Z,4640.00
2018-12-18T08:38:31.663Z,4732.00
2018-12-18T08:39:31.637Z,5116.00
2018-12-18T08:40:31.609Z,4848.00
2018-12-18T08:41:31.593Z,4360.00
2018-12-18T08:42:31.589Z,4468.00
2018-12-18T08:43:31.544Z,4308.00
2018-12-18T08:44:31.515Z,4168.00
2018-12-18T08:45:31.489Z,4432.00
2018-12-18T08:46:31.470Z,4668.00
2018-12-18T08:47:31.442Z,5368.00
2018-12-18T08:48:31.425Z,5716.00
2018-12-18T08:49:31.396Z,5764.00
2018-12-18T08:50:31.398Z,6624.00
2018-12-18T08:51:31.349Z,6408.00
2018-12-18T08:52:31.323Z,5776.00
2018-12-18T08:53:31.298Z,5168.00
2018-12-18T08:54:31.294Z,4796.00
2018-12-18T08:55:31.265Z,4408.00
2018-12-18T08:56:31.227Z,4264.00
2018-12-18T08:57:31.205Z,4300.00
2018-12-18T08:58:31.182Z,4496.00
2018-12-18T08:59:31.160Z,5048.00
2018-12-18T09:00:31.132Z,5752.00
2018-12-18T09:01:31.112Z,5816.00
2018-12-18T09:02:31.090Z,5344.00
2018-12-18T09:03:31.087Z,4916.00
2018-12-18T09:04:31.051Z,5028.00
2018-12-18T09:05:31.015Z,5704.00
2018-12-18T09:06:30.996Z,5212.00
2018-12-18T09:07:30.969Z,4892.00
2018-12-18T09:08:30.956Z,4448.00
2018-12-18T09:09:30.925Z,3880.00
2018-12-18T09:10:30.907Z,3964.00
2018-12-18T09:11:30.905Z,4336.00
2018-12-18T09:12:30.857Z,5112.00
2018-12-18T09:13:30.838Z,5176.00
2018-12-18T09:14:30.817Z,4196.00
2018-12-18T09:15:30.784Z,3832.00
2018-12-18T09:16:30.759Z,4040.00
2018-12-18T09:17:30.746Z,4536.00
2018-12-18T09:18:30.714Z,5600.00
2018-12-18T09:19:30.688Z,6240.00
2018-12-18T09:20:30.666Z,5664.00
2018-12-18T09:21:30.659Z,5060.00
2018-12-18T09:22:30.618Z,5116.00
2018-12-18T09:23:30.601Z,5448.00
2018-12-18T09:24:30.585Z,5928.00
2018-12-18T09:25:30.550Z,6472.00
2018-12-18T09:26:30.525Z,6184.00
2018-12-18T09:27:30.513Z,5820.00
2018-12-18T09:28:30.509Z,5780.00
2018-12-18T09:29:30.464Z,5108.00
2018-12-18T09:30:30.439Z,5124.00
2018-12-18T09:31:30.421Z,5748.00
2018-12-18T09:32:30.388Z,5244.00
2018-12-18T09:33:30.375Z,7128.00
2018-12-18T09:34:30.356Z,6676.00
2018-12-18T09:35:30.317Z,6324.00
2018-12-18T09:36:30.311Z,6380.00
2018-12-18T09:37:30.275Z,6384.00
2018-12-18T09:38:30.272Z,6532.00
2018-12-18T09:39:30.250Z,6500.00
2018-12-18T09:40:30.208Z,6696.00
2018-12-18T09:41:30.187Z,7508.00
2018-12-18T09:42:30.171Z,6056.00
2018-12-18T09:43:30.136Z,7852.00
2018-12-18T09:44:30.114Z,8384.00
2018-12-18T09:45:30.102Z,8556.00
2018-12-18T09:46:30.064Z,8644.00
2018-12-18T09:47:30.043Z,7168.00
2018-12-18T09:48:30.021Z,8152.00
2018-12-18T09:49:30.005Z,6492.00
2018-12-18T09:50:29.977Z,7012.00
2018-12-18T09:51:29.957Z,7684.00
2018-12-18T09:52:29.933Z,8208.00
2018-12-18T09:53:29.906Z,9320.00
2018-12-18T09:54:29.894Z,11616.00
2018-12-18T09:55:29.865Z,10176.00
2018-12-18T09:56:29.859Z,9640.00
2018-12-18T09:57:29.823Z,10800.00
2018-12-18T09:58:29.801Z,9704.00
2018-12-18T09:59:29.784Z,11224.00
2018-12-18T10:00:29.755Z,11072.00
2018-12-18T10:01:29.746Z,10808.00
2018-12-18T10:02:29.713Z,10636.00
2018-12-18T10:03:33.545Z,10832.00
2018-12-18T10:04:29.670Z,10936.00
2018-12-18T10:05:29.656Z,10728.00
2018-12-18T10:06:29.628Z,9916.00
2018-12-18T10:07:29.640Z,9532.00
2018-12-18T10:08:29.594Z,10200.00
2018-12-18T10:09:29.564Z,10708.00
2018-12-18T10:10:29.539Z,9320.00
2018-12-18T10:11:29.529Z,9412.00
2018-12-18T10:12:29.494Z,8684.00
2018-12-18T10:13:29.489Z,7692.00
2018-12-18T10:14:29.456Z,7632.00
2018-12-18T10:15:29.434Z,8256.00
2018-12-18T10:16:29.421Z,8796.00
2018-12-18T10:17:29.395Z,7600.00
2018-12-18T10:18:29.375Z,8556.00
2018-12-18T10:19:29.350Z,8076.00
2018-12-18T10:20:29.336Z,7884.00
2018-12-18T10:21:30.003Z,8888.00
2018-12-18T10:22:29.298Z,8184.00
2018-12-18T10:23:29.269Z,10836.00
2018-12-18T10:24:29.251Z,8764.00
2018-12-18T10:25:29.225Z,8204.00
2018-12-18T10:26:29.209Z,8824.00
2018-12-18T10:27:29.193Z,7212.00
2018-12-18T10:28:29.160Z,7036.00
2018-12-18T10:29:29.153Z,7168.00
2018-12-18T10:30:29.113Z,6736.00
2018-12-18T10:31:29.100Z,6480.00
2018-12-18T10:32:29.086Z,6872.00
2018-12-18T10:33:29.055Z,6968.00
2018-12-18T10:34:29.035Z,6884.00
2018-12-18T10:35:29.012Z,6744.00
2018-12-18T10:36:28.997Z,6604.00
2018-12-18T10:37:28.968Z,6456.00
2018-12-18T10:38:28.955Z,6932.00
2018-12-18T10:39:28.929Z,7700.00
2018-12-18T10:40:28.916Z,7420.00
2018-12-18T10:41:28.891Z,8148.00
2018-12-18T10:42:28.867Z,8820.00
2018-12-18T10:43:28.840Z,8760.00
2018-12-18T10:44:28.833Z,9092.00
2018-12-18T10:45:28.804Z,9544.00
2018-12-18T10:46:28.785Z,9756.00
2018-12-18T10:47:28.772Z,9996.00
2018-12-18T10:48:28.752Z,9988.00
2018-12-18T10:49:28.725Z,9892.00
2018-12-18T10:50:28.703Z,9936.00
2018-12-18T10:51:28.683Z,10016.00
2018-12-18T10:52:28.663Z,10068.00
2018-12-18T10:53:28.637Z,10132.00
2018-12-18T10:54:28.620Z,10340.00
2018-12-18T10:55:28.605Z,10932.00
2018-12-18T10:56:28.582Z,10796.00
2018-12-18T10:57:28.566Z,10336.00
2018-12-18T10:58:28.540Z,9696.00
2018-12-18T10:59:28.521Z,9584.00
2018-12-18T11:00:28.509Z,9344.00
2018-12-18T11:01:28.489Z,9132.00
2018-12-18T11:02:28.473Z,8828.00
2018-12-18T11:03:28.452Z,8484.00
2018-12-18T11:04:28.428Z,8384.00
2018-12-18T11:05:28.406Z,8316.00
2018-12-18T11:06:28.391Z,8468.00
2018-12-18T11:07:28.388Z,8480.00
2018-12-18T11:08:28.362Z,8876.00
2018-12-18T11:09:28.333Z,8996.00
2018-12-18T11:10:28.321Z,7320.00
2018-12-18T11:11:28.304Z,6684.00
2018-12-18T11:12:28.295Z,8396.00
2018-12-18T11:13:28.282Z,8508.00
2018-12-18T11:14:28.250Z,8700.00
2018-12-18T11:15:28.234Z,7416.00
2018-12-18T11:16:28.216Z,8160.00
2018-12-18T11:17:28.199Z,7108.00
2018-12-18T11:18:28.183Z,8788.00
2018-12-18T11:19:28.177Z,8832.00
2018-12-18T11:20:28.145Z,8844.00
2018-12-18T11:21:28.142Z,8744.00
2018-12-18T11:22:28.113Z,8608.00
2018-12-18T11:23:28.100Z,8920.00
2018-12-18T11:24:28.068Z,8640.00
2018-12-18T11:25:28.055Z,9564.00
2018-12-18T11:26:28.043Z,9224.00
2018-12-18T11:27:28.026Z,8368.00
2018-12-18T11:28:28.008Z,9324.00
2018-12-18T11:29:27.984Z,8792.00
2018-12-18T11:30:27.969Z,8928.00
2018-12-18T11:31:27.956Z,9132.00
2018-12-18T11:32:33.143Z,8040.00
2018-12-18T11:33:27.921Z,8752.00
2018-12-18T11:34:27.906Z,9144.00
2018-12-18T11:35:27.896Z,8844.00
2018-12-18T11:36:27.873Z,9488.00
2018-12-18T11:37:27.858Z,9360.00
2018-12-18T11:38:27.835Z,9264.00
2018-12-18T11:39:27.818Z,9112.00
2018-12-18T11:40:27.803Z,6056.00
2018-12-18T11:41:27.788Z,6760.00
2018-12-18T11:42:27.768Z,6612.00
2018-12-18T11:43:27.759Z,8372.00
2018-12-18T11:44:27.736Z,8216.00
2018-12-18T11:45:27.721Z,8352.00
2018-12-18T11:46:27.702Z,5700.00
2018-12-18T11:47:27.689Z,6936.00
2018-12-18T11:48:27.675Z,7820.00
2018-12-18T11:49:27.672Z,7972.00
2018-12-18T11:50:27.663Z,7904.00
2018-12-18T11:51:27.612Z,5608.00
2018-12-18T11:52:27.609Z,5608.00
2018-12-18T11:53:27.589Z,7072.00
2018-12-18T11:54:27.565Z,4788.00
2018-12-18T11:55:27.554Z,4576.00
2018-12-18T11:56:27.536Z,4792.00
2018-12-18T11:57:27.514Z,5088.00
2018-12-18T11:58:27.495Z,5036.00
2018-12-18T11:59:27.476Z,4984.00
2018-12-18T12:01:59.546Z,7148.00
2018-12-18T12:02:59.511Z,7404.00
2018-12-18T12:05:31.586Z,7584.00
2018-12-18T12:06:31.558Z,7684.00
2018-12-18T12:07:31.532Z,7632.00
2018-12-18T12:08:31.522Z,7728.00
2018-12-18T12:09:31.500Z,8176.00
2018-12-18T12:10:31.478Z,7284.00
2018-12-18T12:11:31.468Z,5360.00
2018-12-18T12:12:31.442Z,5736.00
2018-12-18T12:13:31.432Z,6668.00
2018-12-18T12:14:31.407Z,8700.00
2018-12-18T12:15:31.397Z,8028.00
2018-12-18T12:16:31.372Z,5528.00
2018-12-18T12:17:31.362Z,5376.00
2018-12-18T12:18:31.351Z,5844.00
2018-12-18T12:19:31.323Z,5992.00
2018-12-18T12:20:31.301Z,6440.00
2018-12-18T12:21:31.285Z,6276.00
2018-12-18T12:22:31.266Z,5476.00
2018-12-18T12:23:31.249Z,5404.00
2018-12-18T12:24:31.232Z,4768.00
2018-12-18T12:25:31.218Z,5108.00
2018-12-18T12:26:31.244Z,5040.00
2018-12-18T12:27:31.182Z,4912.00
2018-12-18T12:28:31.164Z,4964.00
2018-12-18T12:29:31.138Z,4788.00
2018-12-18T12:30:31.118Z,4840.00
2018-12-18T12:31:31.099Z,4016.00
2018-12-18T12:32:31.084Z,4196.00
2018-12-18T12:33:31.064Z,4776.00
2018-12-18T12:34:31.045Z,4260.00
2018-12-18T12:35:31.029Z,4732.00
2018-12-18T12:36:31.010Z,5160.00
2018-12-18T12:37:30.985Z,5192.00
2018-12-18T12:38:30.963Z,4648.00
2018-12-18T12:39:30.949Z,4816.00
2018-12-18T12:40:30.933Z,4928.00
2018-12-18T12:41:30.911Z,4876.00
2018-12-18T12:42:30.893Z,5060.00
2018-12-18T12:43:30.867Z,5320.00
2018-12-18T12:44:30.844Z,5236.00
2018-12-18T12:45:30.832Z,5300.00
2018-12-18T12:46:30.819Z,5348.00
2018-12-18T12:47:30.793Z,5468.00